< < Back
Terminal Aerodrome Forecast


Current Version              Previous Versions:   1  2  3  4  5  6  7  8  9  

Terminal Aerodrome Forecast

665
FTUS42 KILM 270525
TAFILM
TAF
KILM 270525Z 2706/2806 02005KT P6SM BKN060 BKN120
      TEMPO 2706/2708 6SM -SHRA
     FM271000 35006KT P6SM SCT080 BKN250
     FM271400 31008KT P6SM FEW050 SCT250=

Latest METAR

505
SAUS70 KWBC 280000 RRB
MTRILM
METAR KILM 272353Z 34005KT 10SM FEW080 18/06 A2982 RMK AO2 SLP099
T01780061 10228 20178 53019


USA.gov is the U.S. government's official web portal to all federal, state and local government web resources and services.